sensor_id;sensor_type;location;lat;lon;timestamp;pressure;altitude;pressure_sealevel;temperature;humidity
53300;BME280;39187;48.476;8.310;2023-09-19T00:00:20;91110.28;;;12.83;100.00
53300;BME280;39187;48.476;8.310;2023-09-19T00:02:56;91105.47;;;13.16;100.00
53300;BME280;39187;48.476;8.310;2023-09-19T00:05:26;91103.88;;;12.80;100.00
53300;BME280;39187;48.476;8.310;2023-09-19T00:07:57;91104.41;;;12.88;100.00
53300;BME280;39187;48.476;8.310;2023-09-19T00:10:26;91097.03;;;13.17;100.00
53300;BME280;39187;48.476;8.310;2023-09-19T00:12:53;91093.63;;;12.92;100.00
53300;BME280;39187;48.476;8.310;2023-09-19T00:15:25;91090.44;;;12.84;100.00
53300;BME280;39187;48.476;8.310;2023-09-19T00:17:54;91104.00;;;12.90;100.00
53300;BME280;39187;48.476;8.310;2023-09-19T00:20:20;91106.31;;;13.00;100.00
53300;BME280;39187;48.476;8.310;2023-09-19T00:22:51;91102.47;;;13.01;100.00
53300;BME280;39187;48.476;8.310;2023-09-19T00:25:20;91097.06;;;12.79;100.00
53300;BME280;39187;48.476;8.310;2023-09-19T00:27:46;91101.94;;;12.94;100.00
53300;BME280;39187;48.476;8.310;2023-09-19T00:30:16;91096.59;;;12.94;100.00
53300;BME280;39187;48.476;8.310;2023-09-19T00:32:45;91099.50;;;12.99;100.00
53300;BME280;39187;48.476;8.310;2023-09-19T00:35:16;91097.66;;;12.96;100.00
53300;BME280;39187;48.476;8.310;2023-09-19T00:37:42;91105.28;;;12.72;100.00
53300;BME280;39187;48.476;8.310;2023-09-19T00:40:09;91104.13;;;12.73;100.00
53300;BME280;39187;48.476;8.310;2023-09-19T00:42:45;91099.06;;;12.88;100.00
53300;BME280;39187;48.476;8.310;2023-09-19T00:45:13;91098.88;;;12.82;100.00
53300;BME280;39187;48.476;8.310;2023-09-19T00:47:49;91103.25;;;12.89;100.00
53300;BME280;39187;48.476;8.310;2023-09-19T00:50:19;91108.03;;;12.81;100.00
53300;BME280;39187;48.476;8.310;2023-09-19T00:52:48;91103.75;;;12.97;100.00
53300;BME280;39187;48.476;8.310;2023-09-19T00:55:15;91102.38;;;12.92;100.00
53300;BME280;39187;48.476;8.310;2023-09-19T00:57:42;91104.28;;;13.17;100.00
53300;BME280;39187;48.476;8.310;2023-09-19T01:00:11;91102.78;;;13.16;100.00
53300;BME280;39187;48.476;8.310;2023-09-19T01:02:41;91107.06;;;13.13;100.00
53300;BME280;39187;48.476;8.310;2023-09-19T01:05:08;91097.91;;;12.89;100.00
53300;BME280;39187;48.476;8.310;2023-09-19T01:07:36;91099.50;;;12.99;100.00
53300;BME280;39187;48.476;8.310;2023-09-19T01:10:06;91107.50;;;13.24;100.00
53300;BME280;39187;48.476;8.310;2023-09-19T01:13:00;91112.84;;;13.12;100.00
53300;BME280;39187;48.476;8.310;2023-09-19T01:18:59;91114.56;;;13.18;100.00
53300;BME280;39187;48.476;8.310;2023-09-19T01:21:38;91111.63;;;13.25;100.00
53300;BME280;39187;48.476;8.310;2023-09-19T01:29:50;91121.59;;;13.00;100.00
53300;BME280;39187;48.476;8.310;2023-09-19T01:32:17;91108.88;;;13.04;100.00
53300;BME280;39187;48.476;8.310;2023-09-19T01:34:48;91106.75;;;13.11;100.00
53300;BME280;39187;48.476;8.310;2023-09-19T01:37:17;91114.09;;;13.20;100.00
53300;BME280;39187;48.476;8.310;2023-09-19T01:39:51;91116.91;;;13.04;100.00
53300;BME280;39187;48.476;8.310;2023-09-19T01:42:28;91122.25;;;13.16;100.00
53300;BME280;39187;48.476;8.310;2023-09-19T01:45:33;91116.91;;;13.16;100.00
53300;BME280;39187;48.476;8.310;2023-09-19T01:48:27;91118.06;;;13.28;100.00
53300;BME280;39187;48.476;8.310;2023-09-19T01:51:01;91114.81;;;13.33;100.00
53300;BME280;39187;48.476;8.310;2023-09-19T01:53:36;91116.69;;;13.11;100.00
53300;BME280;39187;48.476;8.310;2023-09-19T01:56:08;91113.69;;;13.21;100.00
53300;BME280;39187;48.476;8.310;2023-09-19T01:58:42;91119.03;;;13.09;100.00
53300;BME280;39187;48.476;8.310;2023-09-19T02:01:12;91109.31;;;13.15;100.00
53300;BME280;39187;48.476;8.310;2023-09-19T02:03:41;91117.31;;;13.15;100.00
53300;BME280;39187;48.476;8.310;2023-09-19T02:06:07;91115.94;;;13.23;100.00
53300;BME280;39187;48.476;8.310;2023-09-19T02:08:37;91108.13;;;13.16;100.00
53300;BME280;39187;48.476;8.310;2023-09-19T02:11:02;91112.19;;;12.95;100.00
53300;BME280;39187;48.476;8.310;2023-09-19T02:13:28;91113.25;;;13.10;100.00
53300;BME280;39187;48.476;8.310;2023-09-19T02:15:54;91114.97;;;13.17;100.00
53300;BME280;39187;48.476;8.310;2023-09-19T02:18:21;91118.38;;;13.30;100.00
53300;BME280;39187;48.476;8.310;2023-09-19T02:20:47;91121.16;;;13.27;100.00
53300;BME280;39187;48.476;8.310;2023-09-19T02:23:13;91121.28;;;13.23;100.00
53300;BME280;39187;48.476;8.310;2023-09-19T02:25:39;91120.84;;;13.12;100.00
53300;BME280;39187;48.476;8.310;2023-09-19T02:28:06;91123.25;;;13.32;100.00
53300;BME280;39187;48.476;8.310;2023-09-19T02:30:32;91119.16;;;13.18;100.00
53300;BME280;39187;48.476;8.310;2023-09-19T02:32:59;91125.13;;;13.22;100.00
53300;BME280;39187;48.476;8.310;2023-09-19T02:35:27;91117.84;;;13.10;100.00
53300;BME280;39187;48.476;8.310;2023-09-19T02:37:53;91114.22;;;13.04;100.00
53300;BME280;39187;48.476;8.310;2023-09-19T02:40:19;91125.66;;;13.17;100.00
53300;BME280;39187;48.476;8.310;2023-09-19T02:42:48;91129.78;;;13.43;100.00
53300;BME280;39187;48.476;8.310;2023-09-19T02:45:16;91127.38;;;13.11;100.00
53300;BME280;39187;48.476;8.310;2023-09-19T02:47:43;91131.53;;;13.12;100.00
53300;BME280;39187;48.476;8.310;2023-09-19T02:50:09;91125.78;;;13.13;100.00
53300;BME280;39187;48.476;8.310;2023-09-19T02:52:43;91133.13;;;13.09;100.00
53300;BME280;39187;48.476;8.310;2023-09-19T02:55:11;91130.59;;;13.18;100.00
53300;BME280;39187;48.476;8.310;2023-09-19T02:57:37;91137.31;;;12.98;100.00
53300;BME280;39187;48.476;8.310;2023-09-19T03:00:07;91139.97;;;13.23;100.00
53300;BME280;39187;48.476;8.310;2023-09-19T03:02:35;91142.88;;;13.16;100.00
53300;BME280;39187;48.476;8.310;2023-09-19T03:05:01;91146.41;;;12.88;100.00
53300;BME280;39187;48.476;8.310;2023-09-19T03:07:28;91132.38;;;13.09;100.00
53300;BME280;39187;48.476;8.310;2023-09-19T03:09:53;91141.56;;;13.08;100.00
53300;BME280;39187;48.476;8.310;2023-09-19T03:12:20;91148.44;;;12.96;100.00
53300;BME280;39187;48.476;8.310;2023-09-19T03:14:46;91149.72;;;13.04;100.00
53300;BME280;39187;48.476;8.310;2023-09-19T03:17:11;91147.69;;;12.96;100.00
53300;BME280;39187;48.476;8.310;2023-09-19T03:19:39;91142.13;;;12.90;100.00
53300;BME280;39187;48.476;8.310;2023-09-19T03:22:06;91142.53;;;13.01;100.00
53300;BME280;39187;48.476;8.310;2023-09-19T03:24:33;91150.16;;;12.90;100.00
53300;BME280;39187;48.476;8.310;2023-09-19T03:26:59;91142.47;;;12.92;100.00
53300;BME280;39187;48.476;8.310;2023-09-19T03:29:24;91140.41;;;12.96;100.00
53300;BME280;39187;48.476;8.310;2023-09-19T03:31:50;91137.13;;;12.79;100.00
53300;BME280;39187;48.476;8.310;2023-09-19T03:34:16;91149.41;;;12.90;100.00
53300;BME280;39187;48.476;8.310;2023-09-19T03:36:42;91134.13;;;12.77;100.00
53300;BME280;39187;48.476;8.310;2023-09-19T03:39:08;91122.34;;;13.00;100.00
53300;BME280;39187;48.476;8.310;2023-09-19T03:41:33;91131.03;;;12.92;100.00
53300;BME280;39187;48.476;8.310;2023-09-19T03:44:02;91136.25;;;12.95;100.00
53300;BME280;39187;48.476;8.310;2023-09-19T03:46:28;91133.59;;;12.82;100.00
53300;BME280;39187;48.476;8.310;2023-09-19T03:48:54;91145.13;;;12.79;100.00
53300;BME280;39187;48.476;8.310;2023-09-19T03:51:20;91147.78;;;13.05;100.00
53300;BME280;39187;48.476;8.310;2023-09-19T03:53:46;91126.84;;;13.03;100.00
53300;BME280;39187;48.476;8.310;2023-09-19T03:56:11;91144.28;;;12.82;100.00
53300;BME280;39187;48.476;8.310;2023-09-19T03:58:37;91136.88;;;12.61;100.00
53300;BME280;39187;48.476;8.310;2023-09-19T04:01:04;91126.75;;;12.69;100.00
53300;BME280;39187;48.476;8.310;2023-09-19T04:03:34;91125.38;;;12.64;100.00
53300;BME280;39187;48.476;8.310;2023-09-19T04:06:10;91129.31;;;12.60;100.00
53300;BME280;39187;48.476;8.310;2023-09-19T04:08:36;91126.66;;;12.72;100.00
53300;BME280;39187;48.476;8.310;2023-09-19T04:11:02;91132.41;;;12.71;100.00
53300;BME280;39187;48.476;8.310;2023-09-19T04:13:28;91131.78;;;12.54;100.00
53300;BME280;39187;48.476;8.310;2023-09-19T04:15:53;91142.56;;;12.76;100.00
53300;BME280;39187;48.476;8.310;2023-09-19T04:18:19;91139.47;;;12.77;100.00
53300;BME280;39187;48.476;8.310;2023-09-19T04:20:52;91141.25;;;12.55;100.00
53300;BME280;39187;48.476;8.310;2023-09-19T04:23:19;91138.09;;;12.60;100.00
53300;BME280;39187;48.476;8.310;2023-09-19T04:25:47;91147.06;;;12.92;100.00
53300;BME280;39187;48.476;8.310;2023-09-19T04:28:13;91149.72;;;12.92;100.00
53300;BME280;39187;48.476;8.310;2023-09-19T04:30:39;91150.78;;;12.69;100.00
53300;BME280;39187;48.476;8.310;2023-09-19T04:33:08;91146.94;;;12.82;100.00
53300;BME280;39187;48.476;8.310;2023-09-19T04:35:33;91155.50;;;12.90;100.00
53300;BME280;39187;48.476;8.310;2023-09-19T04:37:59;91159.34;;;12.89;100.00
53300;BME280;39187;48.476;8.310;2023-09-19T04:40:25;91163.63;;;12.87;100.00
53300;BME280;39187;48.476;8.310;2023-09-19T04:42:55;91167.56;;;12.82;100.00
53300;BME280;39187;48.476;8.310;2023-09-19T04:45:24;91163.72;;;12.70;100.00
53300;BME280;39187;48.476;8.310;2023-09-19T04:47:50;91165.53;;;12.73;100.00
53300;BME280;39187;48.476;8.310;2023-09-19T04:50:15;91172.66;;;12.51;100.00
53300;BME280;39187;48.476;8.310;2023-09-19T04:52:43;91171.59;;;12.61;100.00
53300;BME280;39187;48.476;8.310;2023-09-19T04:55:16;91175.97;;;12.55;100.00
53300;BME280;39187;48.476;8.310;2023-09-19T04:57:46;91173.41;;;12.52;100.00
53300;BME280;39187;48.476;8.310;2023-09-19T05:00:22;91171.09;;;12.66;100.00
53300;BME280;39187;48.476;8.310;2023-09-19T05:02:55;91186.00;;;12.51;100.00
53300;BME280;39187;48.476;8.310;2023-09-19T05:05:23;91192.44;;;12.66;100.00
53300;BME280;39187;48.476;8.310;2023-09-19T05:07:50;91190.53;;;12.67;100.00
53300;BME280;39187;48.476;8.310;2023-09-19T05:10:17;91199.72;;;12.66;100.00
53300;BME280;39187;48.476;8.310;2023-09-19T05:12:44;91202.06;;;12.76;100.00
53300;BME280;39187;48.476;8.310;2023-09-19T05:15:12;91203.66;;;12.74;100.00
53300;BME280;39187;48.476;8.310;2023-09-19T05:17:38;91210.72;;;12.80;100.00
53300;BME280;39187;48.476;8.310;2023-09-19T05:20:04;91216.44;;;12.41;100.00
53300;BME280;39187;48.476;8.310;2023-09-19T05:22:57;91215.81;;;12.62;100.00
53300;BME280;39187;48.476;8.310;2023-09-19T05:25:24;91216.91;;;12.65;100.00
53300;BME280;39187;48.476;8.310;2023-09-19T05:27:53;91210.28;;;12.82;100.00
53300;BME280;39187;48.476;8.310;2023-09-19T05:30:18;91214.53;;;12.54;100.00
53300;BME280;39187;48.476;8.310;2023-09-19T05:32:45;91220.13;;;12.72;100.00
53300;BME280;39187;48.476;8.310;2023-09-19T05:35:11;91216.91;;;12.77;100.00
53300;BME280;39187;48.476;8.310;2023-09-19T05:37:38;91230.13;;;12.68;100.00
53300;BME280;39187;48.476;8.310;2023-09-19T05:40:05;91235.81;;;12.83;100.00
53300;BME280;39187;48.476;8.310;2023-09-19T05:42:34;91238.09;;;12.84;100.00
53300;BME280;39187;48.476;8.310;2023-09-19T05:45:00;91236.75;;;12.64;100.00
53300;BME280;39187;48.476;8.310;2023-09-19T05:47:26;91235.94;;;12.67;100.00
53300;BME280;39187;48.476;8.310;2023-09-19T05:49:51;91235.00;;;12.86;100.00
53300;BME280;39187;48.476;8.310;2023-09-19T05:52:17;91239.59;;;12.85;100.00
53300;BME280;39187;48.476;8.310;2023-09-19T05:54:43;91246.50;;;12.70;100.00
53300;BME280;39187;48.476;8.310;2023-09-19T05:57:09;91242.25;;;12.73;100.00
53300;BME280;39187;48.476;8.310;2023-09-19T05:59:37;91232.41;;;12.70;100.00
53300;BME280;39187;48.476;8.310;2023-09-19T06:02:05;91238.69;;;12.63;100.00
53300;BME280;39187;48.476;8.310;2023-09-19T06:04:32;91237.00;;;12.82;100.00
53300;BME280;39187;48.476;8.310;2023-09-19T06:06:58;91243.09;;;12.95;100.00
53300;BME280;39187;48.476;8.310;2023-09-19T06:09:24;91254.94;;;12.81;100.00
53300;BME280;39187;48.476;8.310;2023-09-19T06:11:49;91253.59;;;13.02;100.00
53300;BME280;39187;48.476;8.310;2023-09-19T06:14:15;91257.44;;;13.01;100.00
53300;BME280;39187;48.476;8.310;2023-09-19T06:16:43;91266.63;;;13.00;100.00
53300;BME280;39187;48.476;8.310;2023-09-19T06:19:08;91269.38;;;12.84;100.00
53300;BME280;39187;48.476;8.310;2023-09-19T06:21:36;91269.28;;;13.00;100.00
53300;BME280;39187;48.476;8.310;2023-09-19T06:24:02;91262.75;;;12.89;100.00
53300;BME280;39187;48.476;8.310;2023-09-19T06:26:28;91256.59;;;13.04;100.00
53300;BME280;39187;48.476;8.310;2023-09-19T06:28:54;91258.09;;;13.05;100.00
53300;BME280;39187;48.476;8.310;2023-09-19T06:31:21;91264.88;;;12.81;100.00
53300;BME280;39187;48.476;8.310;2023-09-19T06:33:48;91262.00;;;12.88;100.00
53300;BME280;39187;48.476;8.310;2023-09-19T06:36:14;91269.88;;;12.66;100.00
53300;BME280;39187;48.476;8.310;2023-09-19T06:38:40;91258.81;;;13.06;100.00
53300;BME280;39187;48.476;8.310;2023-09-19T06:41:06;91249.84;;;13.00;100.00
53300;BME280;39187;48.476;8.310;2023-09-19T06:43:35;91265.69;;;13.19;100.00
53300;BME280;39187;48.476;8.310;2023-09-19T06:46:01;91261.00;;;13.23;100.00
53300;BME280;39187;48.476;8.310;2023-09-19T06:48:28;91278.63;;;13.46;100.00
53300;BME280;39187;48.476;8.310;2023-09-19T06:50:59;91271.91;;;13.16;100.00
53300;BME280;39187;48.476;8.310;2023-09-19T06:53:31;91277.78;;;13.37;100.00
53300;BME280;39187;48.476;8.310;2023-09-19T06:55:58;91273.28;;;13.34;100.00
53300;BME280;39187;48.476;8.310;2023-09-19T06:58:23;91287.47;;;13.05;100.00
53300;BME280;39187;48.476;8.310;2023-09-19T07:00:49;91291.13;;;13.11;100.00
53300;BME280;39187;48.476;8.310;2023-09-19T07:03:16;91282.00;;;12.83;100.00
53300;BME280;39187;48.476;8.310;2023-09-19T07:05:47;91289.38;;;12.92;100.00
53300;BME280;39187;48.476;8.310;2023-09-19T07:08:13;91288.03;;;13.25;100.00
53300;BME280;39187;48.476;8.310;2023-09-19T07:10:39;91287.28;;;13.12;100.00
53300;BME280;39187;48.476;8.310;2023-09-19T07:13:15;91296.63;;;12.79;100.00
53300;BME280;39187;48.476;8.310;2023-09-19T07:15:43;91291.09;;;12.99;100.00
53300;BME280;39187;48.476;8.310;2023-09-19T07:18:18;91298.22;;;12.89;100.00
53300;BME280;39187;48.476;8.310;2023-09-19T07:20:44;91308.81;;;12.80;100.00
53300;BME280;39187;48.476;8.310;2023-09-19T07:23:20;91301.47;;;12.97;100.00
53300;BME280;39187;48.476;8.310;2023-09-19T07:25:48;91303.81;;;13.07;100.00
53300;BME280;39187;48.476;8.310;2023-09-19T07:28:14;91312.59;;;13.08;100.00
53300;BME280;39187;48.476;8.310;2023-09-19T07:30:40;91320.34;;;12.90;100.00
53300;BME280;39187;48.476;8.310;2023-09-19T07:33:07;91320.78;;;13.01;100.00
53300;BME280;39187;48.476;8.310;2023-09-19T07:35:33;91322.16;;;13.21;100.00
53300;BME280;39187;48.476;8.310;2023-09-19T07:37:59;91323.34;;;12.79;100.00
53300;BME280;39187;48.476;8.310;2023-09-19T07:40:27;91313.72;;;12.94;100.00
53300;BME280;39187;48.476;8.310;2023-09-19T07:42:55;91324.94;;;12.89;100.00
53300;BME280;39187;48.476;8.310;2023-09-19T07:45:20;91326.41;;;13.19;100.00
53300;BME280;39187;48.476;8.310;2023-09-19T07:47:50;91322.59;;;12.78;100.00
53300;BME280;39187;48.476;8.310;2023-09-19T07:50:17;91325.56;;;13.22;100.00
53300;BME280;39187;48.476;8.310;2023-09-19T07:52:49;91328.03;;;13.42;100.00
53300;BME280;39187;48.476;8.310;2023-09-19T07:55:19;91325.69;;;13.44;100.00
53300;BME280;39187;48.476;8.310;2023-09-19T07:57:48;91332.00;;;13.50;100.00
53300;BME280;39187;48.476;8.310;2023-09-19T08:00:14;91339.88;;;14.04;100.00
53300;BME280;39187;48.476;8.310;2023-09-19T08:02:42;91330.13;;;14.57;100.00
53300;BME280;39187;48.476;8.310;2023-09-19T08:05:10;91337.53;;;14.75;100.00
53300;BME280;39187;48.476;8.310;2023-09-19T08:07:41;91331.56;;;14.71;100.00
53300;BME280;39187;48.476;8.310;2023-09-19T08:10:08;91325.63;;;14.54;100.00
53300;BME280;39187;48.476;8.310;2023-09-19T08:12:37;91336.56;;;14.00;100.00
53300;BME280;39187;48.476;8.310;2023-09-19T08:15:05;91333.09;;;14.25;100.00
53300;BME280;39187;48.476;8.310;2023-09-19T08:17:35;91346.78;;;14.27;100.00
53300;BME280;39187;48.476;8.310;2023-09-19T08:20:01;91339.06;;;14.41;100.00
53300;BME280;39187;48.476;8.310;2023-09-19T08:22:28;91338.22;;;14.88;100.00
53300;BME280;39187;48.476;8.310;2023-09-19T08:24:54;91350.69;;;14.13;100.00
53300;BME280;39187;48.476;8.310;2023-09-19T08:27:21;91349.53;;;14.36;100.00
53300;BME280;39187;48.476;8.310;2023-09-19T08:29:47;91357.22;;;13.99;100.00
53300;BME280;39187;48.476;8.310;2023-09-19T08:32:13;91358.06;;;13.96;100.00
53300;BME280;39187;48.476;8.310;2023-09-19T08:34:39;91355.69;;;14.24;100.00
53300;BME280;39187;48.476;8.310;2023-09-19T08:37:05;91360.63;;;14.13;100.00
53300;BME280;39187;48.476;8.310;2023-09-19T08:39:31;91371.59;;;14.53;100.00
53300;BME280;39187;48.476;8.310;2023-09-19T08:42:01;91371.16;;;14.54;100.00
53300;BME280;39187;48.476;8.310;2023-09-19T08:44:28;91377.75;;;14.15;100.00
53300;BME280;39187;48.476;8.310;2023-09-19T08:47:05;91386.56;;;14.63;100.00
53300;BME280;39187;48.476;8.310;2023-09-19T08:52:24;91382.72;;;14.64;100.00
53300;BME280;39187;48.476;8.310;2023-09-19T08:54:58;91386.66;;;14.72;100.00
53300;BME280;39187;48.476;8.310;2023-09-19T08:57:29;91387.25;;;14.29;100.00
53300;BME280;39187;48.476;8.310;2023-09-19T08:59:55;91384.34;;;14.49;100.00
53300;BME280;39187;48.476;8.310;2023-09-19T09:02:22;91388.81;;;14.86;100.00
53300;BME280;39187;48.476;8.310;2023-09-19T09:04:49;91383.91;;;14.50;100.00
53300;BME280;39187;48.476;8.310;2023-09-19T09:07:16;91393.66;;;14.91;100.00
53300;BME280;39187;48.476;8.310;2023-09-19T09:09:42;91396.66;;;14.59;100.00
53300;BME280;39187;48.476;8.310;2023-09-19T09:12:13;91386.59;;;14.84;100.00
53300;BME280;39187;48.476;8.310;2023-09-19T09:14:46;91393.78;;;14.28;100.00
53300;BME280;39187;48.476;8.310;2023-09-19T09:17:16;91397.16;;;14.66;100.00
53300;BME280;39187;48.476;8.310;2023-09-19T09:19:46;91400.34;;;14.39;100.00
53300;BME280;39187;48.476;8.310;2023-09-19T09:22:12;91398.22;;;14.69;100.00
53300;BME280;39187;48.476;8.310;2023-09-19T09:24:52;91390.81;;;14.13;100.00
53300;BME280;39187;48.476;8.310;2023-09-19T09:27:19;91396.56;;;14.84;100.00
53300;BME280;39187;48.476;8.310;2023-09-19T09:29:48;91388.03;;;15.20;100.00
53300;BME280;39187;48.476;8.310;2023-09-19T09:34:54;91399.06;;;15.66;100.00
53300;BME280;39187;48.476;8.310;2023-09-19T09:37:21;91399.63;;;15.60;100.00
53300;BME280;39187;48.476;8.310;2023-09-19T09:39:52;91386.81;;;15.55;100.00
53300;BME280;39187;48.476;8.310;2023-09-19T09:42:33;91400.56;;;15.67;100.00
53300;BME280;39187;48.476;8.310;2023-09-19T09:45:19;91400.13;;;15.46;100.00
53300;BME280;39187;48.476;8.310;2023-09-19T09:47:54;91404.50;;;15.84;100.00
53300;BME280;39187;48.476;8.310;2023-09-19T09:50:30;91396.19;;;15.91;100.00
53300;BME280;39187;48.476;8.310;2023-09-19T09:53:22;91386.97;;;16.01;100.00
53300;BME280;39187;48.476;8.310;2023-09-19T09:56:08;91397.09;;;15.97;100.00
53300;BME280;39187;48.476;8.310;2023-09-19T10:01:13;91405.31;;;15.93;100.00
53300;BME280;39187;48.476;8.310;2023-09-19T10:03:41;91397.72;;;15.61;100.00
53300;BME280;39187;48.476;8.310;2023-09-19T10:06:11;91399.94;;;15.62;100.00
53300;BME280;39187;48.476;8.310;2023-09-19T10:09:06;91397.53;;;15.86;100.00
53300;BME280;39187;48.476;8.310;2023-09-19T10:12:05;91404.19;;;15.82;100.00
53300;BME280;39187;48.476;8.310;2023-09-19T10:14:36;91392.63;;;15.63;100.00
53300;BME280;39187;48.476;8.310;2023-09-19T10:17:05;91401.94;;;15.28;100.00
53300;BME280;39187;48.476;8.310;2023-09-19T10:19:42;91392.25;;;15.52;100.00
53300;BME280;39187;48.476;8.310;2023-09-19T10:22:12;91387.13;;;15.97;100.00
53300;BME280;39187;48.476;8.310;2023-09-19T10:24:40;91393.00;;;15.74;100.00
53300;BME280;39187;48.476;8.310;2023-09-19T10:27:06;91388.66;;;15.68;100.00
53300;BME280;39187;48.476;8.310;2023-09-19T10:29:36;91389.66;;;15.39;100.00
53300;BME280;39187;48.476;8.310;2023-09-19T10:32:05;91392.19;;;15.43;100.00
53300;BME280;39187;48.476;8.310;2023-09-19T10:34:38;91399.63;;;15.91;100.00
53300;BME280;39187;48.476;8.310;2023-09-19T10:37:07;91389.81;;;15.67;100.00
53300;BME280;39187;48.476;8.310;2023-09-19T10:39:35;91393.25;;;15.23;100.00
53300;BME280;39187;48.476;8.310;2023-09-19T10:42:06;91395.00;;;15.17;100.00
53300;BME280;39187;48.476;8.310;2023-09-19T10:44:37;91381.25;;;15.28;100.00
53300;BME280;39187;48.476;8.310;2023-09-19T10:47:10;91395.75;;;15.40;100.00
53300;BME280;39187;48.476;8.310;2023-09-19T10:49:44;91393.63;;;15.56;100.00
53300;BME280;39187;48.476;8.310;2023-09-19T10:52:13;91387.97;;;15.33;100.00
53300;BME280;39187;48.476;8.310;2023-09-19T10:54:46;91390.00;;;15.72;100.00
53300;BME280;39187;48.476;8.310;2023-09-19T10:57:20;91395.19;;;15.97;100.00
53300;BME280;39187;48.476;8.310;2023-09-19T11:00:05;91388.50;;;15.49;100.00
53300;BME280;39187;48.476;8.310;2023-09-19T11:03:24;91385.63;;;15.96;100.00
53300;BME280;39187;48.476;8.310;2023-09-19T11:06:18;91390.41;;;16.01;100.00
53300;BME280;39187;48.476;8.310;2023-09-19T11:09:04;91394.09;;;16.26;100.00
53300;BME280;39187;48.476;8.310;2023-09-19T11:30:35;91393.91;;;16.69;97.98
53300;BME280;39187;48.476;8.310;2023-09-19T11:33:30;91391.88;;;16.52;97.95
53300;BME280;39187;48.476;8.310;2023-09-19T11:36:16;91388.44;;;16.42;99.46
53300;BME280;39187;48.476;8.310;2023-09-19T11:49:27;91388.31;;;16.55;98.61
53300;BME280;39187;48.476;8.310;2023-09-19T11:51:56;91390.25;;;16.54;98.09
53300;BME280;39187;48.476;8.310;2023-09-19T11:54:22;91382.63;;;16.43;98.48
53300;BME280;39187;48.476;8.310;2023-09-19T11:56:51;91385.16;;;16.47;98.08
53300;BME280;39187;48.476;8.310;2023-09-19T11:59:22;91388.53;;;16.20;98.81
53300;BME280;39187;48.476;8.310;2023-09-19T12:01:52;91376.91;;;16.23;97.33
53300;BME280;39187;48.476;8.310;2023-09-19T12:04:40;91378.28;;;16.46;96.46
53300;BME280;39187;48.476;8.310;2023-09-19T12:07:13;91373.22;;;16.48;97.19
53300;BME280;39187;48.476;8.310;2023-09-19T12:09:46;91373.81;;;16.52;96.57
53300;BME280;39187;48.476;8.310;2023-09-19T12:14:52;91372.16;;;16.45;96.31
53300;BME280;39187;48.476;8.310;2023-09-19T12:17:18;91369.34;;;16.49;93.49
53300;BME280;39187;48.476;8.310;2023-09-19T12:19:55;91367.19;;;16.17;94.53
53300;BME280;39187;48.476;8.310;2023-09-19T12:22:21;91364.38;;;16.29;93.04
53300;BME280;39187;48.476;8.310;2023-09-19T12:24:48;91365.13;;;16.30;95.09
53300;BME280;39187;48.476;8.310;2023-09-19T12:27:14;91350.53;;;16.49;92.66
53300;BME280;39187;48.476;8.310;2023-09-19T12:29:47;91357.38;;;16.32;91.83
53300;BME280;39187;48.476;8.310;2023-09-19T12:32:34;91353.66;;;16.48;90.07
53300;BME280;39187;48.476;8.310;2023-09-19T12:35:00;91354.72;;;16.50;90.76
53300;BME280;39187;48.476;8.310;2023-09-19T12:37:32;91358.94;;;16.60;90.05
53300;BME280;39187;48.476;8.310;2023-09-19T12:40:08;91354.25;;;16.42;90.07
53300;BME280;39187;48.476;8.310;2023-09-19T12:42:47;91352.50;;;16.58;87.34
53300;BME280;39187;48.476;8.310;2023-09-19T12:45:13;91356.38;;;16.57;86.25
53300;BME280;39187;48.476;8.310;2023-09-19T12:53:43;91346.25;;;16.97;84.76
53300;BME280;39187;48.476;8.310;2023-09-19T12:56:11;91339.34;;;16.41;81.02
53300;BME280;39187;48.476;8.310;2023-09-19T12:58:51;91343.38;;;16.46;78.49
53300;BME280;39187;48.476;8.310;2023-09-19T13:01:19;91340.38;;;16.35;77.26
53300;BME280;39187;48.476;8.310;2023-09-19T13:03:45;91351.63;;;16.61;77.46
53300;BME280;39187;48.476;8.310;2023-09-19T13:06:11;91342.81;;;16.78;76.28
53300;BME280;39187;48.476;8.310;2023-09-19T13:08:38;91346.56;;;16.81;76.31
53300;BME280;39187;48.476;8.310;2023-09-19T13:11:17;91346.09;;;16.92;74.22
53300;BME280;39187;48.476;8.310;2023-09-19T13:16:33;91345.50;;;16.97;74.52
53300;BME280;39187;48.476;8.310;2023-09-19T13:18:59;91342.38;;;17.07;76.82
53300;BME280;39187;48.476;8.310;2023-09-19T13:21:32;91349.38;;;17.05;78.23
53300;BME280;39187;48.476;8.310;2023-09-19T13:24:22;91339.66;;;17.26;74.84
53300;BME280;39187;48.476;8.310;2023-09-19T13:26:51;91343.88;;;16.81;73.53
53300;BME280;39187;48.476;8.310;2023-09-19T13:29:16;91338.66;;;16.68;72.38
53300;BME280;39187;48.476;8.310;2023-09-19T13:31:50;91335.16;;;16.31;73.64
53300;BME280;39187;48.476;8.310;2023-09-19T13:34:19;91345.66;;;16.66;73.95
53300;BME280;39187;48.476;8.310;2023-09-19T13:36:45;91331.03;;;16.94;73.86
53300;BME280;39187;48.476;8.310;2023-09-19T13:39:14;91330.25;;;17.03;76.35
53300;BME280;39187;48.476;8.310;2023-09-19T13:41:41;91341.78;;;16.85;78.64
53300;BME280;39187;48.476;8.310;2023-09-19T13:44:08;91333.69;;;16.58;76.04
53300;BME280;39187;48.476;8.310;2023-09-19T13:46:36;91324.41;;;16.59;71.67
53300;BME280;39187;48.476;8.310;2023-09-19T13:49:02;91325.06;;;16.81;70.48
53300;BME280;39187;48.476;8.310;2023-09-19T13:51:31;91327.59;;;16.75;72.83
53300;BME280;39187;48.476;8.310;2023-09-19T13:53:57;91326.25;;;16.62;73.94
53300;BME280;39187;48.476;8.310;2023-09-19T13:56:22;91323.41;;;16.74;75.16
53300;BME280;39187;48.476;8.310;2023-09-19T13:58:49;91323.38;;;16.83;74.09
53300;BME280;39187;48.476;8.310;2023-09-19T14:01:14;91325.94;;;16.87;73.54
53300;BME280;39187;48.476;8.310;2023-09-19T14:03:41;91328.78;;;16.65;76.26